createdAt,value
2017-01-15T00:00:11.959Z,921.77
2017-01-15T00:00:40.293Z,921.76
2017-01-15T00:01:08.396Z,921.8
2017-01-15T00:01:36.766Z,921.81
2017-01-15T00:02:04.964Z,921.83
2017-01-15T00:02:33.214Z,921.83
2017-01-15T00:03:01.497Z,921.84
2017-01-15T00:03:29.452Z,921.83
2017-01-15T00:03:57.767Z,921.84
2017-01-15T00:04:25.783Z,921.81
2017-01-15T00:04:53.994Z,921.79
2017-01-15T00:06:05.335Z,921.8
2017-01-15T00:06:33.385Z,921.87
2017-01-15T00:07:01.611Z,921.9
2017-01-15T00:07:29.835Z,921.9
2017-01-15T00:07:57.899Z,921.94
2017-01-15T00:08:26.036Z,921.9
2017-01-15T00:08:54.169Z,921.93
2017-01-15T00:09:22.204Z,921.91
2017-01-15T00:09:50.122Z,921.92
2017-01-15T00:10:17.976Z,921.91
2017-01-15T00:10:46.155Z,921.9
2017-01-15T00:11:57.476Z,921.89
2017-01-15T00:12:25.663Z,921.86
2017-01-15T00:12:53.821Z,921.91
2017-01-15T00:13:22.022Z,921.91
2017-01-15T00:13:50.248Z,921.92
2017-01-15T00:14:18.573Z,921.96
2017-01-15T00:14:46.936Z,921.95
2017-01-15T00:15:15.195Z,921.94
2017-01-15T00:15:43.450Z,921.98
2017-01-15T00:16:11.683Z,921.97
2017-01-15T00:16:39.932Z,921.97
2017-01-15T00:17:51.207Z,921.97
2017-01-15T00:18:19.262Z,921.96
2017-01-15T00:18:47.331Z,922.01
2017-01-15T00:19:15.502Z,921.97
2017-01-15T00:19:43.634Z,921.97
2017-01-15T00:20:11.896Z,921.99
2017-01-15T00:20:40.120Z,922.03
2017-01-15T00:21:08.250Z,922.02
2017-01-15T00:21:36.571Z,922
2017-01-15T00:22:04.769Z,921.99
2017-01-15T00:22:32.835Z,922.01
2017-01-15T00:23:44.235Z,921.96
2017-01-15T00:24:12.534Z,921.93
2017-01-15T00:24:40.676Z,921.93
2017-01-15T00:25:09.003Z,921.92
2017-01-15T00:25:37.138Z,921.94
2017-01-15T00:26:05.185Z,921.92
2017-01-15T00:26:33.501Z,922
2017-01-15T00:27:01.719Z,922.03
2017-01-15T00:27:29.921Z,922
2017-01-15T00:27:58.024Z,921.99
2017-01-15T00:28:26.178Z,922.03
2017-01-15T00:29:37.302Z,922.05
2017-01-15T00:30:05.413Z,922.08
2017-01-15T00:30:33.436Z,922.06
2017-01-15T00:31:01.480Z,922.09
2017-01-15T00:31:29.704Z,922.11
2017-01-15T00:31:57.933Z,922.11
2017-01-15T00:32:25.921Z,922.13
2017-01-15T00:32:54.186Z,922.1
2017-01-15T00:33:22.294Z,922.08
2017-01-15T00:33:50.443Z,922.06
2017-01-15T00:34:18.587Z,922.04
2017-01-15T00:35:29.896Z,922.07
2017-01-15T00:35:57.931Z,922.08
2017-01-15T00:36:26.964Z,922.11
2017-01-15T00:36:55.194Z,922.15
2017-01-15T00:37:23.324Z,922.12
2017-01-15T00:37:51.464Z,922.13
2017-01-15T00:38:19.848Z,922.14
2017-01-15T00:38:47.970Z,922.08
2017-01-15T00:39:16.095Z,922.13
2017-01-15T00:39:43.928Z,922.18
2017-01-15T00:40:11.905Z,922.21
2017-01-15T00:41:23.075Z,922.22
2017-01-15T00:41:51.187Z,922.19
2017-01-15T00:42:19.289Z,922.21
2017-01-15T00:42:47.478Z,922.22
2017-01-15T00:43:15.706Z,922.17
2017-01-15T00:43:44.076Z,922.19
2017-01-15T00:44:12.408Z,922.23
2017-01-15T00:44:40.487Z,922.2
2017-01-15T00:45:08.450Z,922.21
2017-01-15T00:45:36.815Z,922.19
2017-01-15T00:46:05.130Z,922.2
2017-01-15T00:47:16.281Z,922.21
2017-01-15T00:47:44.286Z,922.29
2017-01-15T00:48:12.348Z,922.23
2017-01-15T00:48:40.546Z,922.26
2017-01-15T00:49:08.726Z,922.26
2017-01-15T00:49:36.996Z,922.27
2017-01-15T00:50:05.309Z,922.26
2017-01-15T00:50:33.565Z,922.25
2017-01-15T00:51:01.767Z,922.27
2017-01-15T00:51:30.055Z,922.31
2017-01-15T00:51:58.170Z,922.3
2017-01-15T00:53:09.482Z,922.3
2017-01-15T00:53:37.697Z,922.37
2017-01-15T00:54:05.978Z,922.4
2017-01-15T00:54:34.333Z,922.38
2017-01-15T00:55:02.659Z,922.4
2017-01-15T00:55:30.840Z,922.42
2017-01-15T00:55:59.119Z,922.4
2017-01-15T00:56:27.264Z,922.43
2017-01-15T00:56:55.540Z,922.39
2017-01-15T00:57:23.774Z,922.41
2017-01-15T00:57:51.948Z,922.44
2017-01-15T00:59:03.127Z,922.37
2017-01-15T00:59:31.403Z,922.39
2017-01-15T00:59:59.518Z,922.38
2017-01-15T01:00:27.924Z,922.38
2017-01-15T01:00:56.092Z,922.39
2017-01-15T01:01:24.368Z,922.36
2017-01-15T01:01:52.771Z,922.36
2017-01-15T01:02:21.133Z,922.35
2017-01-15T01:02:49.289Z,922.34
2017-01-15T01:03:17.346Z,922.35
2017-01-15T01:03:45.524Z,922.34
2017-01-15T01:04:56.523Z,922.35
2017-01-15T01:05:24.684Z,922.33
2017-01-15T01:05:52.886Z,922.34
2017-01-15T01:06:20.875Z,922.33
2017-01-15T01:06:48.945Z,922.36
2017-01-15T01:07:17.177Z,922.34
2017-01-15T01:07:45.257Z,922.36
2017-01-15T01:08:13.380Z,922.35
2017-01-15T01:08:41.618Z,922.37
2017-01-15T01:09:09.760Z,922.35
2017-01-15T01:09:37.876Z,922.41
2017-01-15T01:10:49.115Z,922.38
2017-01-15T01:11:17.336Z,922.38
2017-01-15T01:11:45.400Z,922.44
2017-01-15T01:12:13.727Z,922.44
2017-01-15T01:12:41.802Z,922.41
2017-01-15T01:13:09.842Z,922.39
2017-01-15T01:13:38.012Z,922.41
2017-01-15T01:14:06.281Z,922.37
2017-01-15T01:14:34.480Z,922.4
2017-01-15T01:15:02.658Z,922.39
2017-01-15T01:15:30.596Z,922.38
2017-01-15T01:16:41.822Z,922.38
2017-01-15T01:17:10.038Z,922.37
2017-01-15T01:17:38.346Z,922.37
2017-01-15T01:18:06.482Z,922.37
2017-01-15T01:18:34.750Z,922.36
2017-01-15T01:19:02.937Z,922.41
2017-01-15T01:19:31.247Z,922.35
2017-01-15T01:19:59.570Z,922.37
2017-01-15T01:20:27.755Z,922.45
2017-01-15T01:20:55.996Z,922.41
2017-01-15T01:21:24.207Z,922.39
2017-01-15T01:22:35.294Z,922.4
2017-01-15T01:23:03.553Z,922.44
2017-01-15T01:23:31.882Z,922.46
2017-01-15T01:24:00.092Z,922.45
2017-01-15T01:24:28.107Z,922.47
2017-01-15T01:24:56.198Z,922.51
2017-01-15T01:25:24.567Z,922.53
2017-01-15T01:25:52.742Z,922.52
2017-01-15T01:26:21.086Z,922.53
2017-01-15T01:26:49.198Z,922.54
2017-01-15T01:27:17.609Z,922.49
2017-01-15T01:28:28.880Z,922.51
2017-01-15T01:28:56.986Z,922.51
2017-01-15T01:29:25.261Z,922.52
2017-01-15T01:29:53.538Z,922.53
2017-01-15T01:30:21.716Z,922.56
2017-01-15T01:30:50.018Z,922.54
2017-01-15T01:31:18.316Z,922.53
2017-01-15T01:31:46.495Z,922.59
2017-01-15T01:32:14.830Z,922.59
2017-01-15T01:32:43.019Z,922.55
2017-01-15T01:33:11.099Z,922.54
2017-01-15T01:34:22.466Z,922.55
2017-01-15T01:34:50.687Z,922.52
2017-01-15T01:35:18.799Z,922.55
2017-01-15T01:35:46.798Z,922.58
2017-01-15T01:36:14.924Z,922.56
2017-01-15T01:36:43.295Z,922.61
2017-01-15T01:37:11.471Z,922.62
2017-01-15T01:37:39.695Z,922.57
2017-01-15T01:38:07.688Z,922.55
2017-01-15T01:38:35.836Z,922.56
2017-01-15T01:39:04.007Z,922.56
2017-01-15T01:40:15.371Z,922.55
2017-01-15T01:40:43.531Z,922.53
2017-01-15T01:41:11.793Z,922.51
2017-01-15T01:41:40.073Z,922.5
2017-01-15T01:42:08.069Z,922.47
2017-01-15T01:42:36.445Z,922.5
2017-01-15T01:43:04.800Z,922.49
2017-01-15T01:43:33.022Z,922.49
2017-01-15T01:44:01.084Z,922.47
2017-01-15T01:44:29.234Z,922.44
2017-01-15T01:44:57.220Z,922.44
2017-01-15T01:46:08.638Z,922.46
2017-01-15T01:46:36.890Z,922.46
2017-01-15T01:47:04.958Z,922.43
2017-01-15T01:47:33.191Z,922.43
2017-01-15T01:48:01.503Z,922.45
2017-01-15T01:48:29.811Z,922.45
2017-01-15T01:48:58.077Z,922.47
2017-01-15T01:49:26.257Z,922.44
2017-01-15T01:49:54.510Z,922.47
2017-01-15T01:50:22.843Z,922.45
2017-01-15T01:50:50.923Z,922.49
2017-01-15T01:52:02.283Z,922.44
2017-01-15T01:52:30.542Z,922.42
2017-01-15T01:52:58.662Z,922.44
2017-01-15T01:53:27.041Z,922.41
2017-01-15T01:53:55.322Z,922.38
2017-01-15T01:54:23.599Z,922.41
2017-01-15T01:54:51.820Z,922.41
2017-01-15T01:55:20.188Z,922.36
2017-01-15T01:55:48.251Z,922.38
2017-01-15T01:56:16.593Z,922.38
2017-01-15T01:56:44.862Z,922.4
2017-01-15T01:57:56.138Z,922.36
2017-01-15T01:58:24.301Z,922.32
2017-01-15T01:58:52.513Z,922.33
2017-01-15T01:59:20.795Z,922.36
2017-01-15T01:59:49.077Z,922.3
2017-01-15T02:00:17.443Z,922.31
2017-01-15T02:00:45.849Z,922.28
2017-01-15T02:01:13.937Z,922.28
2017-01-15T02:01:42.189Z,922.24
2017-01-15T02:02:10.144Z,922.23
2017-01-15T02:02:38.500Z,922.26
2017-01-15T02:03:49.771Z,922.22
2017-01-15T02:04:18.125Z,922.13
2017-01-15T02:04:46.523Z,922.16
2017-01-15T02:05:14.711Z,922.13
2017-01-15T02:05:42.891Z,922.13
2017-01-15T02:06:11.255Z,922.14
2017-01-15T02:06:39.469Z,922.15
2017-01-15T02:07:07.553Z,922.12
2017-01-15T02:07:35.801Z,922.13
2017-01-15T02:08:04.142Z,922.05
2017-01-15T02:08:32.406Z,922.1
2017-01-15T02:09:43.678Z,922.06
2017-01-15T02:10:11.938Z,922.04
2017-01-15T02:10:40.147Z,922.05
2017-01-15T02:11:08.429Z,922.01
2017-01-15T02:11:36.518Z,922.03
2017-01-15T02:12:04.881Z,921.98
2017-01-15T02:12:33.087Z,921.99
2017-01-15T02:13:01.268Z,921.98
2017-01-15T02:13:29.417Z,922.01
2017-01-15T02:13:57.566Z,921.97
2017-01-15T02:14:25.740Z,922
2017-01-15T02:15:37.010Z,921.94
2017-01-15T02:16:05.171Z,922.01
2017-01-15T02:16:33.288Z,922
2017-01-15T02:17:01.568Z,921.96
2017-01-15T02:17:29.743Z,921.93
2017-01-15T02:17:58.020Z,921.99
2017-01-15T02:18:26.146Z,921.93
2017-01-15T02:18:54.227Z,921.95
2017-01-15T02:19:22.482Z,921.89
2017-01-15T02:19:50.729Z,921.91
2017-01-15T02:20:18.995Z,921.93
2017-01-15T02:21:30.084Z,921.94
2017-01-15T02:21:58.435Z,921.93
2017-01-15T02:22:26.830Z,921.89
2017-01-15T02:22:55.209Z,921.98
2017-01-15T02:23:23.579Z,922.04
2017-01-15T02:23:51.951Z,921.94
2017-01-15T02:24:20.168Z,921.93
2017-01-15T02:24:48.439Z,921.9
2017-01-15T02:25:16.685Z,921.86
2017-01-15T02:25:45.029Z,921.87
2017-01-15T02:26:13.297Z,921.85
2017-01-15T02:27:24.662Z,921.82
2017-01-15T02:27:53.016Z,921.83
2017-01-15T02:28:21.138Z,921.82
2017-01-15T02:28:49.420Z,921.8
2017-01-15T02:29:17.609Z,921.77
2017-01-15T02:29:45.882Z,921.81
2017-01-15T02:30:14.104Z,921.79
2017-01-15T02:30:42.468Z,921.78
2017-01-15T02:31:10.812Z,921.77
2017-01-15T02:31:39.059Z,921.69
2017-01-15T02:32:07.327Z,921.72
2017-01-15T02:33:19.355Z,921.68
2017-01-15T02:33:47.519Z,921.76
2017-01-15T02:34:15.728Z,921.79
2017-01-15T02:34:44.008Z,921.73
2017-01-15T02:35:12.221Z,921.75
2017-01-15T02:35:40.585Z,921.77
2017-01-15T02:36:08.808Z,921.78
2017-01-15T02:36:36.985Z,921.74
2017-01-15T02:37:05.236Z,921.73
2017-01-15T02:37:33.570Z,921.75
2017-01-15T02:38:01.838Z,921.77
2017-01-15T02:39:13.113Z,921.72
2017-01-15T02:39:41.280Z,921.75
2017-01-15T02:40:09.586Z,921.74
2017-01-15T02:40:37.965Z,921.73
2017-01-15T02:41:06.145Z,921.78
2017-01-15T02:41:34.417Z,921.75
2017-01-15T02:42:02.813Z,921.73
2017-01-15T02:42:31.051Z,921.74
2017-01-15T02:42:59.355Z,921.73
2017-01-15T02:43:27.554Z,921.72
2017-01-15T02:43:55.870Z,921.71
2017-01-15T02:45:07.193Z,921.71
2017-01-15T02:45:35.312Z,921.73
2017-01-15T02:46:03.471Z,921.73
2017-01-15T02:46:31.732Z,921.72
2017-01-15T02:46:59.919Z,921.71
2017-01-15T02:47:28.200Z,921.75
2017-01-15T02:47:56.514Z,921.74
2017-01-15T02:48:24.598Z,921.75
2017-01-15T02:48:52.657Z,921.72
2017-01-15T02:49:20.810Z,921.73
2017-01-15T02:49:48.984Z,921.73
2017-01-15T02:51:00.109Z,921.72
2017-01-15T02:51:28.270Z,921.71
2017-01-15T02:51:57.037Z,921.72
2017-01-15T02:52:25.814Z,921.69
2017-01-15T02:52:54.931Z,921.66
2017-01-15T02:53:23.904Z,921.68
2017-01-15T02:53:52.032Z,921.64
2017-01-15T02:54:20.311Z,921.63
2017-01-15T02:54:48.566Z,921.66
2017-01-15T02:55:16.724Z,921.66
2017-01-15T02:55:45.004Z,921.64
2017-01-15T02:56:56.276Z,921.66
2017-01-15T02:57:24.638Z,921.64
2017-01-15T02:57:52.856Z,921.63
2017-01-15T02:58:21.232Z,921.63
2017-01-15T02:58:49.775Z,921.66
2017-01-15T02:59:17.929Z,921.62
2017-01-15T02:59:46.100Z,921.61
2017-01-15T03:00:14.161Z,921.6
2017-01-15T03:00:42.413Z,921.61
2017-01-15T03:01:10.751Z,921.6
2017-01-15T03:01:39.122Z,921.6
2017-01-15T03:02:50.558Z,921.6
2017-01-15T03:03:18.805Z,921.6
2017-01-15T03:03:47.010Z,921.57
2017-01-15T03:04:15.280Z,921.61
2017-01-15T03:04:43.553Z,921.55
2017-01-15T03:05:11.747Z,921.55
2017-01-15T03:05:40.155Z,921.57
2017-01-15T03:06:08.426Z,921.55
2017-01-15T03:06:36.677Z,921.54
2017-01-15T03:07:04.926Z,921.52
2017-01-15T03:07:33.105Z,921.54
2017-01-15T03:08:44.474Z,921.54
2017-01-15T03:09:12.637Z,921.54
2017-01-15T03:09:40.940Z,921.51
2017-01-15T03:10:09.319Z,921.51
2017-01-15T03:10:37.685Z,921.49
2017-01-15T03:11:06.059Z,921.54
2017-01-15T03:11:34.433Z,921.51
2017-01-15T03:12:02.579Z,921.5
2017-01-15T03:12:30.822Z,921.46
2017-01-15T03:12:59.064Z,921.46
2017-01-15T03:13:27.245Z,921.44
2017-01-15T03:14:38.523Z,921.46
2017-01-15T03:15:06.879Z,921.49
2017-01-15T03:15:35.185Z,921.48
2017-01-15T03:16:03.252Z,921.5
2017-01-15T03:16:31.386Z,921.51
2017-01-15T03:16:59.667Z,921.47
2017-01-15T03:17:27.890Z,921.49
2017-01-15T03:17:55.972Z,921.46
2017-01-15T03:18:24.127Z,921.49
2017-01-15T03:18:52.377Z,921.51
2017-01-15T03:19:20.736Z,921.48
2017-01-15T03:20:32.014Z,921.52
2017-01-15T03:21:00.368Z,921.45
2017-01-15T03:21:28.668Z,921.45
2017-01-15T03:21:56.949Z,921.46
2017-01-15T03:22:25.223Z,921.44
2017-01-15T03:22:53.497Z,921.42
2017-01-15T03:23:21.813Z,921.4
2017-01-15T03:23:50.182Z,921.38
2017-01-15T03:24:18.502Z,921.39
2017-01-15T03:24:46.648Z,921.37
2017-01-15T03:25:15.010Z,921.36
2017-01-15T03:26:26.369Z,921.34
2017-01-15T03:26:54.634Z,921.35
2017-01-15T03:27:23.027Z,921.38
2017-01-15T03:27:51.224Z,921.36
2017-01-15T03:28:19.407Z,921.38
2017-01-15T03:28:47.773Z,921.36
2017-01-15T03:29:16.181Z,921.34
2017-01-15T03:29:44.274Z,921.35
2017-01-15T03:30:12.529Z,921.36
2017-01-15T03:30:40.779Z,921.32
2017-01-15T03:31:09.052Z,921.31
2017-01-15T03:32:20.418Z,921.34
2017-01-15T03:32:48.579Z,921.32
2017-01-15T03:33:16.887Z,921.34
2017-01-15T03:33:45.167Z,921.32
2017-01-15T03:34:13.349Z,921.35
2017-01-15T03:34:41.723Z,921.33
2017-01-15T03:35:09.940Z,921.32
2017-01-15T03:35:38.301Z,921.31
2017-01-15T03:36:06.641Z,921.27
2017-01-15T03:36:34.789Z,921.31
2017-01-15T03:37:02.960Z,921.32
2017-01-15T03:38:14.327Z,921.35
2017-01-15T03:38:42.397Z,921.39
2017-01-15T03:39:10.698Z,921.36
2017-01-15T03:39:38.983Z,921.31
2017-01-15T03:40:07.166Z,921.37
2017-01-15T03:40:35.696Z,921.36
2017-01-15T03:41:03.923Z,921.39
2017-01-15T03:41:32.101Z,921.37
2017-01-15T03:42:00.446Z,921.39
2017-01-15T03:42:28.598Z,921.38
2017-01-15T03:42:56.862Z,921.35
2017-01-15T03:44:08.322Z,921.35
2017-01-15T03:44:36.676Z,921.31
2017-01-15T03:45:04.795Z,921.32
2017-01-15T03:45:32.993Z,921.3
2017-01-15T03:46:01.355Z,921.31
2017-01-15T03:46:29.627Z,921.3
2017-01-15T03:46:57.842Z,921.28
2017-01-15T03:47:26.203Z,921.31
2017-01-15T03:47:54.550Z,921.27
2017-01-15T03:48:22.707Z,921.24
2017-01-15T03:48:50.975Z,921.29
2017-01-15T03:50:02.339Z,921.25
2017-01-15T03:50:30.592Z,921.26
2017-01-15T03:50:58.801Z,921.24
2017-01-15T03:51:27.080Z,921.21
2017-01-15T03:51:55.359Z,921.24
2017-01-15T03:52:23.636Z,921.22
2017-01-15T03:52:51.767Z,921.22
2017-01-15T03:53:20.038Z,921.22
2017-01-15T03:53:48.289Z,921.21
2017-01-15T03:54:16.536Z,921.22
2017-01-15T03:54:44.900Z,921.21
2017-01-15T03:55:56.272Z,921.2
2017-01-15T03:56:24.534Z,921.19
2017-01-15T03:56:52.837Z,921.19
2017-01-15T03:57:21.211Z,921.24
2017-01-15T03:57:49.391Z,921.19
2017-01-15T03:58:17.571Z,921.18
2017-01-15T03:58:45.602Z,921.19
2017-01-15T03:59:13.684Z,921.18
2017-01-15T03:59:41.932Z,921.18
2017-01-15T04:00:10.084Z,921.2
2017-01-15T04:00:38.358Z,921.15
2017-01-15T04:01:49.724Z,921.18
2017-01-15T04:02:17.887Z,921.19
2017-01-15T04:02:46.196Z,921.17
2017-01-15T04:03:14.387Z,921.2
2017-01-15T04:03:42.573Z,921.15
2017-01-15T04:04:10.941Z,921.18
2017-01-15T04:04:39.159Z,921.18
2017-01-15T04:05:07.338Z,921.16
2017-01-15T04:05:35.495Z,921.18
2017-01-15T04:06:03.647Z,921.14
2017-01-15T04:06:31.734Z,921.19
2017-01-15T04:07:43.102Z,921.18
2017-01-15T04:08:11.271Z,921.14
2017-01-15T04:08:39.666Z,921.17
2017-01-15T04:09:07.672Z,921.15
2017-01-15T04:09:35.870Z,921.17
2017-01-15T04:10:03.871Z,921.16
2017-01-15T04:10:32.190Z,921.14
2017-01-15T04:11:00.551Z,921.16
2017-01-15T04:11:28.702Z,921.15
2017-01-15T04:11:57.041Z,921.16
2017-01-15T04:12:25.215Z,921.13
2017-01-15T04:13:36.498Z,921.09
2017-01-15T04:14:04.844Z,921.09
2017-01-15T04:14:33.241Z,921.12
2017-01-15T04:15:01.521Z,921.08
2017-01-15T04:15:29.894Z,921.11
2017-01-15T04:15:58.258Z,921.08
2017-01-15T04:16:26.567Z,921.05
2017-01-15T04:16:54.742Z,921.06
2017-01-15T04:17:23.084Z,921.05
2017-01-15T04:17:51.331Z,921.05
2017-01-15T04:18:19.599Z,921.05
2017-01-15T04:19:31.062Z,921.05
2017-01-15T04:19:59.314Z,921.04
2017-01-15T04:20:27.611Z,921.05
2017-01-15T04:20:55.799Z,921.02
2017-01-15T04:21:24.172Z,921.04
2017-01-15T04:21:52.446Z,921.02
2017-01-15T04:22:20.760Z,921.02
2017-01-15T04:22:48.933Z,921
2017-01-15T04:23:16.993Z,921
2017-01-15T04:23:45.331Z,920.99
2017-01-15T04:24:13.411Z,921
2017-01-15T04:25:24.775Z,921.02
2017-01-15T04:25:52.844Z,921.03
2017-01-15T04:26:21.046Z,920.98
2017-01-15T04:26:49.226Z,921.03
2017-01-15T04:27:17.501Z,921.02
2017-01-15T04:27:45.778Z,921.01
2017-01-15T04:28:14.000Z,920.99
2017-01-15T04:28:42.361Z,921.03
2017-01-15T04:29:10.517Z,921
2017-01-15T04:29:38.670Z,920.97
2017-01-15T04:30:06.939Z,920.95
2017-01-15T04:31:18.401Z,921
2017-01-15T04:31:46.661Z,920.95
2017-01-15T04:32:14.771Z,920.99
2017-01-15T04:32:43.084Z,920.96
2017-01-15T04:33:11.359Z,920.93
2017-01-15T04:33:39.640Z,920.93
2017-01-15T04:34:07.863Z,920.92
2017-01-15T04:34:36.134Z,920.93
2017-01-15T04:35:04.387Z,920.95
2017-01-15T04:35:32.737Z,920.91
2017-01-15T04:36:00.912Z,920.92
2017-01-15T04:37:12.189Z,920.91
2017-01-15T04:37:40.170Z,920.92
2017-01-15T04:38:08.474Z,920.93
2017-01-15T04:38:36.749Z,920.92
2017-01-15T04:39:05.023Z,920.89
2017-01-15T04:39:33.307Z,920.92
2017-01-15T04:40:01.614Z,920.9
2017-01-15T04:40:29.792Z,920.91
2017-01-15T04:40:58.044Z,920.89
2017-01-15T04:41:26.296Z,920.88
2017-01-15T04:41:54.651Z,920.87
2017-01-15T04:43:05.735Z,920.89
2017-01-15T04:43:33.982Z,920.91
2017-01-15T04:44:02.095Z,920.87
2017-01-15T04:44:30.123Z,920.87
2017-01-15T04:44:58.212Z,920.86
2017-01-15T04:45:26.491Z,920.87
2017-01-15T04:45:54.904Z,920.87
2017-01-15T04:46:23.278Z,920.83
2017-01-15T04:46:51.612Z,920.84
2017-01-15T04:47:19.946Z,920.86
2017-01-15T04:47:48.209Z,920.9
2017-01-15T04:48:59.487Z,920.88
2017-01-15T04:49:27.746Z,920.88
2017-01-15T04:49:56.043Z,920.86
2017-01-15T04:50:24.138Z,920.82
2017-01-15T04:50:52.506Z,920.82
2017-01-15T04:51:20.690Z,920.8
2017-01-15T04:51:49.005Z,920.78
2017-01-15T04:52:17.084Z,920.78
2017-01-15T04:52:45.333Z,920.75
2017-01-15T04:53:13.485Z,920.79
2017-01-15T04:53:41.754Z,920.77
2017-01-15T04:54:53.119Z,920.78
2017-01-15T04:55:21.282Z,920.79
2017-01-15T04:55:49.397Z,920.79
2017-01-15T04:56:17.587Z,920.77
2017-01-15T04:56:45.854Z,920.8
2017-01-15T04:57:14.220Z,920.77
2017-01-15T04:57:42.435Z,920.79
2017-01-15T04:58:10.615Z,920.82
2017-01-15T04:58:38.771Z,920.79
2017-01-15T04:59:06.924Z,920.8
2017-01-15T04:59:35.199Z,920.79
2017-01-15T05:00:46.467Z,920.78
2017-01-15T05:01:14.819Z,920.83
2017-01-15T05:01:42.870Z,920.78
2017-01-15T05:02:11.061Z,920.79
2017-01-15T05:02:39.241Z,920.79
2017-01-15T05:03:07.426Z,920.78
2017-01-15T05:03:35.650Z,920.82
2017-01-15T05:04:04.012Z,920.79
2017-01-15T05:04:32.261Z,920.83
2017-01-15T05:05:00.499Z,920.79
2017-01-15T05:05:28.766Z,920.8
2017-01-15T05:06:40.039Z,920.79
2017-01-15T05:07:08.299Z,920.77
2017-01-15T05:07:36.416Z,920.79
2017-01-15T05:08:04.704Z,920.77
2017-01-15T05:08:32.801Z,920.75
2017-01-15T05:09:01.078Z,920.74
2017-01-15T05:09:29.392Z,920.76
2017-01-15T05:09:57.668Z,920.74
2017-01-15T05:10:25.726Z,920.79
2017-01-15T05:10:53.876Z,920.77
2017-01-15T05:11:21.958Z,920.78
2017-01-15T05:12:33.324Z,920.77
2017-01-15T05:13:01.678Z,920.76
2017-01-15T05:13:29.796Z,920.75
2017-01-15T05:13:58.080Z,920.71
2017-01-15T05:14:26.351Z,920.76
2017-01-15T05:14:54.534Z,920.68
2017-01-15T05:15:22.750Z,920.71
2017-01-15T05:15:51.114Z,920.73
2017-01-15T05:16:19.178Z,920.72
2017-01-15T05:16:47.425Z,920.71
2017-01-15T05:17:15.692Z,920.71
2017-01-15T05:18:26.965Z,920.71
2017-01-15T05:18:55.036Z,920.75
2017-01-15T05:19:23.245Z,920.7
2017-01-15T05:19:51.528Z,920.71
2017-01-15T05:20:19.703Z,920.69
2017-01-15T05:20:48.068Z,920.73
2017-01-15T05:21:16.383Z,920.7
2017-01-15T05:21:44.565Z,920.74
2017-01-15T05:22:12.820Z,920.75
2017-01-15T05:22:40.968Z,920.73
2017-01-15T05:23:09.236Z,920.77
2017-01-15T05:24:20.322Z,920.75
2017-01-15T05:24:48.582Z,920.81
2017-01-15T05:25:16.883Z,920.79
2017-01-15T05:25:45.068Z,920.78
2017-01-15T05:26:13.342Z,920.77
2017-01-15T05:26:41.624Z,920.79
2017-01-15T05:27:09.933Z,920.77
2017-01-15T05:27:37.826Z,920.78
2017-01-15T05:28:05.982Z,920.75
2017-01-15T05:28:34.133Z,920.75
2017-01-15T05:29:02.304Z,920.74
2017-01-15T05:30:13.762Z,920.74
2017-01-15T05:30:42.112Z,920.71
2017-01-15T05:31:10.225Z,920.72
2017-01-15T05:31:38.313Z,920.71
2017-01-15T05:32:06.312Z,920.71
2017-01-15T05:32:34.678Z,920.72
2017-01-15T05:33:02.905Z,920.73
2017-01-15T05:33:31.081Z,920.69
2017-01-15T05:33:59.330Z,920.71
2017-01-15T05:34:27.663Z,920.69
2017-01-15T05:34:55.933Z,920.73
2017-01-15T05:36:07.207Z,920.69
2017-01-15T05:36:35.371Z,920.69
2017-01-15T05:37:03.763Z,920.65
2017-01-15T05:37:31.981Z,920.66
2017-01-15T05:38:00.251Z,920.67
2017-01-15T05:38:28.622Z,920.61
2017-01-15T05:38:56.933Z,920.63
2017-01-15T05:39:25.116Z,920.59
2017-01-15T05:39:53.372Z,920.59
2017-01-15T05:40:21.525Z,920.57
2017-01-15T05:40:49.698Z,920.61
2017-01-15T05:42:01.155Z,920.58
2017-01-15T05:42:29.503Z,920.54
2017-01-15T05:42:57.710Z,920.57
2017-01-15T05:43:25.992Z,920.55
2017-01-15T05:43:54.082Z,920.57
2017-01-15T05:44:22.451Z,920.54
2017-01-15T05:44:50.671Z,920.56
2017-01-15T05:45:18.848Z,920.55
2017-01-15T05:45:47.188Z,920.56
2017-01-15T05:46:15.522Z,920.53
2017-01-15T05:46:43.792Z,920.59
2017-01-15T05:47:55.157Z,920.57
2017-01-15T05:48:23.416Z,920.57
2017-01-15T05:48:51.717Z,920.54
2017-01-15T05:49:19.902Z,920.58
2017-01-15T05:49:48.273Z,920.5
2017-01-15T05:50:16.634Z,920.48
2017-01-15T05:50:45.040Z,920.52
2017-01-15T05:51:13.314Z,920.52
2017-01-15T05:51:41.656Z,920.53
2017-01-15T05:52:09.809Z,920.51
2017-01-15T05:52:37.983Z,920.55
2017-01-15T05:53:49.441Z,920.51
2017-01-15T05:54:17.795Z,920.49
2017-01-15T05:54:45.912Z,920.49
2017-01-15T05:55:14.195Z,920.51
2017-01-15T05:55:42.382Z,920.53
2017-01-15T05:56:10.656Z,920.52
2017-01-15T05:56:38.965Z,920.53
2017-01-15T05:57:06.962Z,920.51
2017-01-15T05:57:35.031Z,920.54
2017-01-15T05:58:03.372Z,920.52
2017-01-15T05:58:31.640Z,920.54
2017-01-15T05:59:43.004Z,920.53
2017-01-15T06:00:11.181Z,920.51
2017-01-15T06:00:39.503Z,920.52
2017-01-15T06:01:07.593Z,920.5
2017-01-15T06:01:35.959Z,920.49
2017-01-15T06:02:04.120Z,920.49
2017-01-15T06:02:32.412Z,920.48
2017-01-15T06:03:00.692Z,920.47
2017-01-15T06:03:29.056Z,920.45
2017-01-15T06:03:57.389Z,920.47
2017-01-15T06:04:25.555Z,920.46
2017-01-15T06:05:36.707Z,920.42
2017-01-15T06:06:04.877Z,920.46
2017-01-15T06:06:33.103Z,920.42
2017-01-15T06:07:01.193Z,920.44
2017-01-15T06:07:29.376Z,920.43
2017-01-15T06:07:57.439Z,920.46
2017-01-15T06:08:25.726Z,920.45
2017-01-15T06:08:53.999Z,920.43
2017-01-15T06:09:22.277Z,920.47
2017-01-15T06:09:50.522Z,920.46
2017-01-15T06:10:18.691Z,920.47
2017-01-15T06:11:30.031Z,920.45
2017-01-15T06:11:58.209Z,920.44
2017-01-15T06:12:26.427Z,920.47
2017-01-15T06:12:54.594Z,920.46
2017-01-15T06:13:22.875Z,920.45
2017-01-15T06:13:51.163Z,920.49
2017-01-15T06:14:19.485Z,920.48
2017-01-15T06:14:47.777Z,920.5
2017-01-15T06:15:16.028Z,920.5
2017-01-15T06:15:44.081Z,920.51
2017-01-15T06:16:12.083Z,920.47
2017-01-15T06:17:23.422Z,920.5
2017-01-15T06:17:51.684Z,920.45
2017-01-15T06:18:19.894Z,920.48
2017-01-15T06:18:48.060Z,920.44
2017-01-15T06:19:16.445Z,920.47
2017-01-15T06:19:44.731Z,920.48
2017-01-15T06:20:13.034Z,920.49
2017-01-15T06:20:41.407Z,920.42
2017-01-15T06:21:09.748Z,920.45
2017-01-15T06:21:37.989Z,920.44
2017-01-15T06:22:06.175Z,920.46
2017-01-15T06:23:17.416Z,920.44
2017-01-15T06:23:45.680Z,920.43
2017-01-15T06:24:13.889Z,920.42
2017-01-15T06:24:42.147Z,920.44
2017-01-15T06:25:10.344Z,920.41
2017-01-15T06:25:38.640Z,920.39
2017-01-15T06:26:06.867Z,920.42
2017-01-15T06:26:35.152Z,920.4
2017-01-15T06:27:03.205Z,920.42
2017-01-15T06:27:31.257Z,920.43
2017-01-15T06:27:59.634Z,920.42
2017-01-15T06:29:10.875Z,920.44
2017-01-15T06:29:39.045Z,920.41
2017-01-15T06:30:07.355Z,920.39
2017-01-15T06:30:35.610Z,920.38
2017-01-15T06:31:03.808Z,920.38
2017-01-15T06:31:32.000Z,920.34
2017-01-15T06:32:00.322Z,920.38
2017-01-15T06:32:28.326Z,920.37
2017-01-15T06:32:56.478Z,920.36
2017-01-15T06:33:24.620Z,920.36
2017-01-15T06:33:52.905Z,920.36
2017-01-15T06:35:04.056Z,920.4
2017-01-15T06:35:32.413Z,920.35
2017-01-15T06:36:00.808Z,920.38
2017-01-15T06:36:29.071Z,920.35
2017-01-15T06:36:57.362Z,920.35
2017-01-15T06:37:25.653Z,920.37
2017-01-15T06:37:53.972Z,920.36
2017-01-15T06:38:22.353Z,920.37
2017-01-15T06:38:50.505Z,920.35
2017-01-15T06:39:18.745Z,920.3
2017-01-15T06:39:47.031Z,920.33
2017-01-15T06:40:58.185Z,920.32
2017-01-15T06:41:26.541Z,920.33
2017-01-15T06:41:54.661Z,920.32
2017-01-15T06:42:22.823Z,920.29